UAE807 OMDB-OEMA
Flight info
| Callsign | UAE807 |
|---|---|
| Flight time | N/A |
| Altitude | 38000 |
| Route | KUTLI L519 ATUDO M318 GOLGU M550 RIBOT/N0454F280 M550 MEVDO/N0478F380 DCT DANOM DCT ASMIS DCT ELONU |
| Aircraft | A332/H-SDE3GHIJ2J3J5M1RVWXY/LB2D1 |
Departure
| Time | 2026-04-30 14:17 |
|---|---|
| Airport | Dubai International Airport (OMDB) |
Arrival
| Time | N/A |
|---|---|
| Airport | Prince Mohammad Bin Abdulaziz Airport (OEMA) |
| Time | Latitude | Longitude | Altitude | Speed | Heading |
|---|---|---|---|---|---|
| 2026-04-30 13:52 | 25.24470 | 55.37139 | 36 ft | 0 kts | 211° |
| 2026-04-30 14:09 | 25.24477 | 55.37143 | 36 ft | 3 kts | 211° |
| 2026-04-30 14:09 | 25.24487 | 55.37150 | 35 ft | 3 kts | 211° |
| 2026-04-30 14:09 | 25.24523 | 55.37173 | 35 ft | 2 kts | 211° |
| 2026-04-30 14:10 | 25.24538 | 55.37182 | 32 ft | 3 kts | 178° |
| 2026-04-30 14:10 | 25.24555 | 55.37177 | 33 ft | 3 kts | 131° |
| 2026-04-30 14:10 | 25.24556 | 55.37176 | 33 ft | 1 kts | 126° |
| 2026-04-30 14:10 | 25.24555 | 55.37177 | 33 ft | 0 kts | 125° |
| 2026-04-30 14:13 | 25.24554 | 55.37179 | 33 ft | 2 kts | 125° |
| 2026-04-30 14:13 | 25.24531 | 55.37227 | 35 ft | 11 kts | 115° |
| 2026-04-30 14:13 | 25.24480 | 55.37338 | 37 ft | 22 kts | 120° |
| 2026-04-30 14:14 | 25.24378 | 55.37518 | 40 ft | 26 kts | 122° |
| 2026-04-30 14:14 | 25.24290 | 55.37676 | 42 ft | 17 kts | 120° |
| 2026-04-30 14:14 | 25.24283 | 55.37771 | 43 ft | 10 kts | 55° |
| 2026-04-30 14:14 | 25.24358 | 55.37839 | 27 ft | 22 kts | 36° |
| 2026-04-30 14:15 | 25.24490 | 55.37938 | 26 ft | 22 kts | 34° |
| 2026-04-30 14:15 | 25.24608 | 55.38026 | 34 ft | 18 kts | 33° |
| 2026-04-30 14:15 | 25.24661 | 55.38063 | 38 ft | 6 kts | 32° |
| 2026-04-30 14:15 | 25.24712 | 55.38094 | 40 ft | 9 kts | 21° |
| 2026-04-30 14:16 | 25.24774 | 55.38073 | 39 ft | 10 kts | 309° |
| 2026-04-30 14:16 | 25.24841 | 55.37956 | 36 ft | 39 kts | 301° |
| 2026-04-30 14:16 | 25.25105 | 55.37481 | 34 ft | 105 kts | 301° |
| 2026-04-30 14:16 | 25.25596 | 55.36595 | 25 ft | 163 kts | 301° |
| 2026-04-30 14:17 | 25.26230 | 55.35461 | 625 ft | 176 kts | 302° |
| 2026-04-30 14:17 | 25.26859 | 55.34328 | 1498 ft | 171 kts | 299° |
| 2026-04-30 14:17 | 25.27509 | 55.33157 | 2143 ft | 190 kts | 302° |
| 2026-04-30 14:17 | 25.28243 | 55.31838 | 2623 ft | 211 kts | 302° |
| 2026-04-30 14:18 | 25.28942 | 55.30372 | 3290 ft | 221 kts | 290° |
| 2026-04-30 14:18 | 25.29112 | 55.28621 | 3760 ft | 245 kts | 263° |
| 2026-04-30 14:18 | 25.27708 | 55.24840 | 4796 ft | 272 kts | 246° |
| 2026-04-30 14:19 | 25.26115 | 55.21280 | 7073 ft | 245 kts | 245° |
| 2026-04-30 14:19 | 25.25391 | 55.19622 | 8213 ft | 235 kts | 246° |
| 2026-04-30 14:19 | 25.24692 | 55.18001 | 9161 ft | 235 kts | 246° |
| 2026-04-30 14:20 | 25.23945 | 55.16374 | 9738 ft | 240 kts | 243° |
| 2026-04-30 14:20 | 25.23090 | 55.14676 | 10042 ft | 264 kts | 242° |
| 2026-04-30 14:20 | 25.21104 | 55.10848 | 10657 ft | 310 kts | 241° |
| 2026-04-30 14:21 | 25.20069 | 55.08676 | 10942 ft | 329 kts | 246° |
| 2026-04-30 14:21 | 25.19148 | 55.06322 | 11473 ft | 338 kts | 248° |
| 2026-04-30 14:21 | 25.16755 | 55.01790 | 12913 ft | 349 kts | 229° |
| 2026-04-30 14:22 | 25.14870 | 55.00117 | 13598 ft | 359 kts | 212° |
| 2026-04-30 14:22 | 25.09973 | 54.98552 | 14866 ft | 373 kts | 194° |
| 2026-04-30 14:22 | 25.07406 | 54.98039 | 15542 ft | 376 kts | 194° |
| 2026-04-30 14:23 | 25.02219 | 54.97012 | 16873 ft | 382 kts | 194° |
| 2026-04-30 14:23 | 24.96952 | 54.95954 | 18142 ft | 388 kts | 194° |
| 2026-04-30 14:24 | 24.91602 | 54.94876 | 19123 ft | 395 kts | 194° |
| 2026-04-30 14:24 | 24.88889 | 54.94326 | 19652 ft | 397 kts | 195° |
| 2026-04-30 14:25 | 24.83717 | 54.92348 | 20740 ft | 394 kts | 209° |
| 2026-04-30 14:25 | 24.78851 | 54.89512 | 21785 ft | 398 kts | 213° |
| 2026-04-30 14:26 | 24.73997 | 54.86492 | 22832 ft | 404 kts | 213° |
| 2026-04-30 14:26 | 24.71535 | 54.84978 | 23328 ft | 407 kts | 213° |
| 2026-04-30 14:26 | 24.66568 | 54.81914 | 24167 ft | 411 kts | 214° |
| 2026-04-30 14:27 | 24.64085 | 54.80332 | 24597 ft | 414 kts | 214° |
| 2026-04-30 14:27 | 24.61600 | 54.78733 | 25021 ft | 416 kts | 214° |
| 2026-04-30 14:27 | 24.59094 | 54.77118 | 25415 ft | 418 kts | 214° |
| 2026-04-30 14:28 | 24.54043 | 54.73871 | 26162 ft | 424 kts | 214° |
| 2026-04-30 14:28 | 24.51498 | 54.72237 | 26555 ft | 426 kts | 214° |
| 2026-04-30 14:28 | 24.48920 | 54.70581 | 26954 ft | 429 kts | 214° |
| 2026-04-30 14:28 | 24.46372 | 54.68945 | 27322 ft | 431 kts | 214° |
| 2026-04-30 14:29 | 24.41165 | 54.65607 | 28059 ft | 436 kts | 214° |
| 2026-04-30 14:29 | 24.35891 | 54.62237 | 28771 ft | 441 kts | 213° |
| 2026-04-30 14:30 | 24.27901 | 54.57073 | 29781 ft | 447 kts | 217° |
| 2026-04-30 14:31 | 24.23382 | 54.52444 | 30226 ft | 448 kts | 234° |
| 2026-04-30 14:31 | 24.20063 | 54.46651 | 30721 ft | 451 kts | 241° |
| 2026-04-30 14:31 | 24.18531 | 54.43657 | 31059 ft | 451 kts | 242° |
| 2026-04-30 14:32 | 24.15521 | 54.37659 | 31865 ft | 448 kts | 242° |
| 2026-04-30 14:32 | 24.14016 | 54.34677 | 32263 ft | 447 kts | 242° |
| 2026-04-30 14:32 | 24.12506 | 54.31709 | 32642 ft | 446 kts | 242° |
| 2026-04-30 14:33 | 24.10992 | 54.28754 | 33041 ft | 445 kts | 241° |
| 2026-04-30 14:33 | 24.07960 | 54.22870 | 33856 ft | 443 kts | 241° |
| 2026-04-30 14:33 | 24.06448 | 54.19944 | 34193 ft | 441 kts | 241° |
| 2026-04-30 14:34 | 24.04938 | 54.17022 | 34520 ft | 441 kts | 241° |
| 2026-04-30 14:34 | 24.03428 | 54.14104 | 34841 ft | 440 kts | 241° |
| 2026-04-30 14:34 | 24.01920 | 54.11189 | 35159 ft | 440 kts | 241° |
| 2026-04-30 14:34 | 24.00416 | 54.08283 | 35481 ft | 439 kts | 241° |
| 2026-04-30 14:35 | 23.97386 | 54.02490 | 36104 ft | 438 kts | 240° |
| 2026-04-30 14:35 | 23.95859 | 53.99600 | 36416 ft | 438 kts | 240° |
| 2026-04-30 14:35 | 23.94335 | 53.96723 | 36705 ft | 438 kts | 240° |
| 2026-04-30 14:36 | 23.92805 | 53.93838 | 37003 ft | 438 kts | 240° |
| 2026-04-30 14:36 | 23.91279 | 53.90960 | 37309 ft | 437 kts | 240° |
| 2026-04-30 14:36 | 23.89756 | 53.88087 | 37624 ft | 437 kts | 240° |
| 2026-04-30 14:36 | 23.88231 | 53.85210 | 37802 ft | 438 kts | 240° |
| 2026-04-30 14:37 | 23.86705 | 53.82334 | 37823 ft | 437 kts | 240° |
| 2026-04-30 14:37 | 23.83658 | 53.76591 | 37822 ft | 436 kts | 240° |
| 2026-04-30 14:38 | 23.80611 | 53.70856 | 37822 ft | 437 kts | 240° |
| 2026-04-30 14:38 | 23.77559 | 53.65117 | 37822 ft | 437 kts | 240° |
| 2026-04-30 14:39 | 23.74500 | 53.59373 | 37814 ft | 438 kts | 240° |
| 2026-04-30 14:39 | 23.71437 | 53.53628 | 37823 ft | 439 kts | 240° |
| 2026-04-30 14:40 | 23.66849 | 53.44986 | 37823 ft | 439 kts | 240° |
| 2026-04-30 14:40 | 23.63797 | 53.39224 | 37826 ft | 439 kts | 240° |
| 2026-04-30 14:41 | 23.60760 | 53.33499 | 37824 ft | 439 kts | 240° |
| 2026-04-30 14:41 | 23.57701 | 53.27742 | 37823 ft | 439 kts | 240° |
| 2026-04-30 14:42 | 23.54638 | 53.21984 | 37829 ft | 439 kts | 240° |
| 2026-04-30 14:42 | 23.51570 | 53.16224 | 37824 ft | 440 kts | 240° |
| 2026-04-30 14:43 | 23.48497 | 53.10462 | 37823 ft | 440 kts | 240° |
| 2026-04-30 14:43 | 23.45423 | 53.04706 | 37826 ft | 440 kts | 240° |
| 2026-04-30 14:44 | 23.42348 | 52.98951 | 37827 ft | 440 kts | 240° |
| 2026-04-30 14:44 | 23.39294 | 52.93177 | 37821 ft | 440 kts | 240° |
| 2026-04-30 14:45 | 23.36312 | 52.87365 | 37824 ft | 440 kts | 241° |
| 2026-04-30 14:45 | 23.33343 | 52.81550 | 37824 ft | 440 kts | 241° |
| 2026-04-30 14:46 | 23.30361 | 52.75733 | 37821 ft | 440 kts | 241° |
| 2026-04-30 14:46 | 23.27878 | 52.70906 | 37821 ft | 440 kts | 240° |
| 2026-04-30 14:47 | 23.24379 | 52.64116 | 37818 ft | 440 kts | 240° |
| 2026-04-30 14:47 | 23.21383 | 52.58309 | 37818 ft | 440 kts | 240° |
| 2026-04-30 14:48 | 23.18466 | 52.52461 | 37821 ft | 440 kts | 245° |
| 2026-04-30 14:48 | 23.16266 | 52.46249 | 37821 ft | 441 kts | 250° |
| 2026-04-30 14:49 | 23.14252 | 52.39948 | 37821 ft | 442 kts | 250° |
| 2026-04-30 14:49 | 23.12273 | 52.33633 | 37820 ft | 442 kts | 250° |
| 2026-04-30 14:50 | 23.09299 | 52.24209 | 37821 ft | 441 kts | 250° |
| 2026-04-30 14:51 | 23.06291 | 52.14760 | 37821 ft | 441 kts | 250° |
| 2026-04-30 14:52 | 23.03275 | 52.05312 | 37824 ft | 441 kts | 250° |
| 2026-04-30 14:52 | 23.00253 | 51.95865 | 37823 ft | 442 kts | 250° |
| 2026-04-30 14:53 | 22.97225 | 51.86418 | 37826 ft | 442 kts | 250° |
| 2026-04-30 14:54 | 22.93178 | 51.73828 | 37826 ft | 442 kts | 250° |
| 2026-04-30 14:55 | 22.90135 | 51.64387 | 37823 ft | 442 kts | 250° |
| 2026-04-30 14:56 | 22.86071 | 51.51812 | 37820 ft | 442 kts | 250° |
| 2026-04-30 14:57 | 22.83579 | 51.42210 | 37825 ft | 442 kts | 257° |
| 2026-04-30 14:58 | 22.82049 | 51.30123 | 37824 ft | 445 kts | 268° |
| 2026-04-30 14:58 | 22.82280 | 51.20065 | 37826 ft | 446 kts | 270° |
| 2026-04-30 15:00 | 22.82892 | 51.03289 | 37826 ft | 445 kts | 270° |
| 2026-04-30 15:01 | 22.83330 | 50.89871 | 37831 ft | 445 kts | 269° |
| 2026-04-30 15:01 | 22.83651 | 50.79809 | 37826 ft | 445 kts | 269° |
| 2026-04-30 15:02 | 22.83861 | 50.73114 | 37827 ft | 445 kts | 269° |
| 2026-04-30 15:03 | 22.84374 | 50.56411 | 37826 ft | 445 kts | 269° |
| 2026-04-30 15:04 | 22.84870 | 50.39664 | 37823 ft | 444 kts | 269° |
| 2026-04-30 15:06 | 22.85348 | 50.22950 | 37825 ft | 443 kts | 269° |
| 2026-04-30 15:07 | 22.85718 | 50.09578 | 37834 ft | 444 kts | 269° |
| 2026-04-30 15:08 | 22.86077 | 49.96188 | 37830 ft | 444 kts | 269° |
| 2026-04-30 15:09 | 22.86509 | 49.79460 | 37834 ft | 444 kts | 269° |
| 2026-04-30 15:10 | 22.86843 | 49.66076 | 37835 ft | 444 kts | 269° |
| 2026-04-30 15:11 | 22.87321 | 49.46081 | 37829 ft | 443 kts | 269° |
| 2026-04-30 15:13 | 22.87700 | 49.29394 | 37826 ft | 443 kts | 269° |
| 2026-04-30 15:14 | 22.88202 | 49.06010 | 37832 ft | 443 kts | 269° |
| 2026-04-30 15:17 | 22.88799 | 48.75874 | 37833 ft | 445 kts | 269° |
| 2026-04-30 15:19 | 22.89282 | 48.49032 | 37837 ft | 445 kts | 268° |